sensor_id;sensor_type;location;lat;lon;timestamp;P1;durP1;ratioP1;P2;durP2;ratioP2
75139;SDS011;63714;55.812;37.658;2022-12-07T00:00:54;3.33;;;1.67;;
75139;SDS011;63714;55.812;37.658;2022-12-07T00:03:29;4.00;;;1.80;;
75139;SDS011;63714;55.812;37.658;2022-12-07T00:05:57;4.63;;;1.58;;
75139;SDS011;63714;55.812;37.658;2022-12-07T00:08:23;4.18;;;1.67;;
75139;SDS011;63714;55.812;37.658;2022-12-07T00:10:48;3.92;;;2.17;;
75139;SDS011;63714;55.812;37.658;2022-12-07T00:13:14;8.13;;;1.83;;
75139;SDS011;63714;55.812;37.658;2022-12-07T00:15:40;4.32;;;2.22;;
75139;SDS011;63714;55.812;37.658;2022-12-07T00:18:05;4.38;;;2.13;;
75139;SDS011;63714;55.812;37.658;2022-12-07T00:20:31;8.90;;;2.25;;
75139;SDS011;63714;55.812;37.658;2022-12-07T00:22:58;6.90;;;2.40;;
75139;SDS011;63714;55.812;37.658;2022-12-07T00:25:24;4.85;;;2.15;;
75139;SDS011;63714;55.812;37.658;2022-12-07T00:27:51;4.93;;;2.00;;
75139;SDS011;63714;55.812;37.658;2022-12-07T00:30:20;4.78;;;2.08;;
75139;SDS011;63714;55.812;37.658;2022-12-07T00:32:46;6.13;;;2.40;;
75139;SDS011;63714;55.812;37.658;2022-12-07T00:35:12;4.93;;;1.92;;
75139;SDS011;63714;55.812;37.658;2022-12-07T00:37:38;3.70;;;1.52;;
75139;SDS011;63714;55.812;37.658;2022-12-07T00:40:04;5.03;;;1.90;;
75139;SDS011;63714;55.812;37.658;2022-12-07T00:42:30;4.85;;;2.10;;
75139;SDS011;63714;55.812;37.658;2022-12-07T00:44:56;4.78;;;1.58;;
75139;SDS011;63714;55.812;37.658;2022-12-07T00:47:21;2.15;;;1.30;;
75139;SDS011;63714;55.812;37.658;2022-12-07T00:49:47;3.90;;;1.30;;
75139;SDS011;63714;55.812;37.658;2022-12-07T00:52:12;5.43;;;2.20;;
75139;SDS011;63714;55.812;37.658;2022-12-07T00:54:38;4.82;;;1.73;;
75139;SDS011;63714;55.812;37.658;2022-12-07T00:57:05;5.22;;;2.13;;
75139;SDS011;63714;55.812;37.658;2022-12-07T00:59:31;3.63;;;2.08;;
75139;SDS011;63714;55.812;37.658;2022-12-07T01:01:56;5.60;;;2.15;;
75139;SDS011;63714;55.812;37.658;2022-12-07T01:04:22;4.13;;;2.25;;
75139;SDS011;63714;55.812;37.658;2022-12-07T01:06:47;4.95;;;1.80;;
75139;SDS011;63714;55.812;37.658;2022-12-07T01:09:13;4.05;;;1.90;;
75139;SDS011;63714;55.812;37.658;2022-12-07T01:11:39;4.07;;;1.83;;
75139;SDS011;63714;55.812;37.658;2022-12-07T01:14:04;4.30;;;1.73;;
75139;SDS011;63714;55.812;37.658;2022-12-07T01:16:30;4.10;;;1.98;;
75139;SDS011;63714;55.812;37.658;2022-12-07T01:18:57;4.38;;;2.30;;
75139;SDS011;63714;55.812;37.658;2022-12-07T01:21:25;4.85;;;2.00;;
75139;SDS011;63714;55.812;37.658;2022-12-07T01:23:56;7.75;;;2.05;;
75139;SDS011;63714;55.812;37.658;2022-12-07T01:26:23;5.80;;;1.77;;
75139;SDS011;63714;55.812;37.658;2022-12-07T01:28:49;3.50;;;1.48;;
75139;SDS011;63714;55.812;37.658;2022-12-07T01:31:16;6.03;;;2.30;;
75139;SDS011;63714;55.812;37.658;2022-12-07T01:33:45;5.35;;;1.83;;
75139;SDS011;63714;55.812;37.658;2022-12-07T01:38:53;4.85;;;1.73;;
75139;SDS011;63714;55.812;37.658;2022-12-07T01:41:22;4.50;;;1.90;;
75139;SDS011;63714;55.812;37.658;2022-12-07T01:46:32;4.75;;;2.25;;
75139;SDS011;63714;55.812;37.658;2022-12-07T01:48:58;4.10;;;1.80;;
75139;SDS011;63714;55.812;37.658;2022-12-07T01:51:24;4.30;;;2.15;;
75139;SDS011;63714;55.812;37.658;2022-12-07T01:53:51;4.10;;;1.83;;
75139;SDS011;63714;55.812;37.658;2022-12-07T01:56:19;6.50;;;2.22;;
75139;SDS011;63714;55.812;37.658;2022-12-07T01:58:47;5.45;;;2.03;;
75139;SDS011;63714;55.812;37.658;2022-12-07T02:01:14;4.50;;;2.20;;
75139;SDS011;63714;55.812;37.658;2022-12-07T02:03:41;4.47;;;1.42;;
75139;SDS011;63714;55.812;37.658;2022-12-07T02:06:08;8.18;;;2.17;;
75139;SDS011;63714;55.812;37.658;2022-12-07T02:08:35;5.95;;;1.88;;
75139;SDS011;63714;55.812;37.658;2022-12-07T02:11:02;5.50;;;2.47;;
75139;SDS011;63714;55.812;37.658;2022-12-07T02:13:31;5.38;;;2.78;;
75139;SDS011;63714;55.812;37.658;2022-12-07T02:18:26;4.90;;;2.05;;
75139;SDS011;63714;55.812;37.658;2022-12-07T02:21:11;3.60;;;1.73;;
75139;SDS011;63714;55.812;37.658;2022-12-07T02:29:05;4.30;;;1.88;;
75139;SDS011;63714;55.812;37.658;2022-12-07T02:31:32;5.10;;;2.03;;
75139;SDS011;63714;55.812;37.658;2022-12-07T02:34:02;1.42;;;0.80;;
75139;SDS011;63714;55.812;37.658;2022-12-07T02:36:36;3.38;;;1.67;;
75139;SDS011;63714;55.812;37.658;2022-12-07T02:39:11;5.95;;;2.00;;
75139;SDS011;63714;55.812;37.658;2022-12-07T02:41:43;5.18;;;2.58;;
75139;SDS011;63714;55.812;37.658;2022-12-07T02:44:20;3.70;;;1.80;;
75139;SDS011;63714;55.812;37.658;2022-12-07T02:46:57;5.20;;;2.08;;
75139;SDS011;63714;55.812;37.658;2022-12-07T02:49:27;4.72;;;2.13;;
75139;SDS011;63714;55.812;37.658;2022-12-07T02:51:54;3.17;;;1.70;;
75139;SDS011;63714;55.812;37.658;2022-12-07T02:54:20;4.90;;;2.13;;
75139;SDS011;63714;55.812;37.658;2022-12-07T02:56:50;4.90;;;1.90;;
75139;SDS011;63714;55.812;37.658;2022-12-07T03:04:30;5.03;;;2.70;;
75139;SDS011;63714;55.812;37.658;2022-12-07T03:07:18;7.32;;;2.47;;
75139;SDS011;63714;55.812;37.658;2022-12-07T03:15:26;4.85;;;2.25;;
75139;SDS011;63714;55.812;37.658;2022-12-07T03:18:18;9.52;;;2.13;;
75139;SDS011;63714;55.812;37.658;2022-12-07T03:20:48;4.78;;;2.03;;
75139;SDS011;63714;55.812;37.658;2022-12-07T03:23:16;5.97;;;2.00;;
75139;SDS011;63714;55.812;37.658;2022-12-07T03:25:47;5.50;;;1.95;;
75139;SDS011;63714;55.812;37.658;2022-12-07T03:28:17;8.95;;;2.50;;
75139;SDS011;63714;55.812;37.658;2022-12-07T03:30:52;5.13;;;2.10;;
75139;SDS011;63714;55.812;37.658;2022-12-07T03:33:36;5.70;;;2.40;;
75139;SDS011;63714;55.812;37.658;2022-12-07T03:38:50;6.45;;;2.63;;
75139;SDS011;63714;55.812;37.658;2022-12-07T03:41:37;2.83;;;1.52;;
75139;SDS011;63714;55.812;37.658;2022-12-07T03:44:04;7.50;;;2.67;;
75139;SDS011;63714;55.812;37.658;2022-12-07T03:49:27;4.50;;;2.08;;
75139;SDS011;63714;55.812;37.658;2022-12-07T03:55:04;6.22;;;1.98;;
75139;SDS011;63714;55.812;37.658;2022-12-07T03:57:35;5.68;;;2.20;;
75139;SDS011;63714;55.812;37.658;2022-12-07T04:00:05;4.32;;;2.33;;
75139;SDS011;63714;55.812;37.658;2022-12-07T04:02:32;3.63;;;1.63;;
75139;SDS011;63714;55.812;37.658;2022-12-07T04:04:58;5.97;;;2.53;;
75139;SDS011;63714;55.812;37.658;2022-12-07T04:07:24;4.70;;;2.20;;
75139;SDS011;63714;55.812;37.658;2022-12-07T04:09:50;6.28;;;1.83;;
75139;SDS011;63714;55.812;37.658;2022-12-07T04:12:16;5.00;;;1.77;;
75139;SDS011;63714;55.812;37.658;2022-12-07T04:14:41;5.43;;;2.40;;
75139;SDS011;63714;55.812;37.658;2022-12-07T04:17:08;6.25;;;2.03;;
75139;SDS011;63714;55.812;37.658;2022-12-07T04:19:33;4.97;;;2.50;;
75139;SDS011;63714;55.812;37.658;2022-12-07T04:22:00;4.05;;;2.10;;
75139;SDS011;63714;55.812;37.658;2022-12-07T04:24:27;6.00;;;1.95;;
75139;SDS011;63714;55.812;37.658;2022-12-07T04:26:53;3.20;;;1.35;;
75139;SDS011;63714;55.812;37.658;2022-12-07T04:29:19;4.93;;;1.95;;
75139;SDS011;63714;55.812;37.658;2022-12-07T04:31:45;6.15;;;2.70;;
75139;SDS011;63714;55.812;37.658;2022-12-07T04:34:11;4.60;;;1.95;;
75139;SDS011;63714;55.812;37.658;2022-12-07T04:36:37;5.68;;;2.25;;
75139;SDS011;63714;55.812;37.658;2022-12-07T04:39:04;4.68;;;2.83;;
75139;SDS011;63714;55.812;37.658;2022-12-07T04:41:32;5.00;;;2.30;;
75139;SDS011;63714;55.812;37.658;2022-12-07T04:43:59;2.65;;;1.33;;
75139;SDS011;63714;55.812;37.658;2022-12-07T04:46:27;5.90;;;2.33;;
75139;SDS011;63714;55.812;37.658;2022-12-07T04:48:54;7.40;;;2.50;;
75139;SDS011;63714;55.812;37.658;2022-12-07T04:51:21;7.18;;;2.67;;
75139;SDS011;63714;55.812;37.658;2022-12-07T04:53:48;7.05;;;3.17;;
75139;SDS011;63714;55.812;37.658;2022-12-07T04:56:15;4.68;;;2.20;;
75139;SDS011;63714;55.812;37.658;2022-12-07T04:58:42;5.28;;;2.55;;
75139;SDS011;63714;55.812;37.658;2022-12-07T05:01:08;6.78;;;2.60;;
75139;SDS011;63714;55.812;37.658;2022-12-07T05:03:35;7.05;;;2.75;;
75139;SDS011;63714;55.812;37.658;2022-12-07T05:06:01;6.97;;;2.90;;
75139;SDS011;63714;55.812;37.658;2022-12-07T05:08:27;9.93;;;2.60;;
75139;SDS011;63714;55.812;37.658;2022-12-07T05:10:53;5.57;;;2.58;;
75139;SDS011;63714;55.812;37.658;2022-12-07T05:13:18;5.68;;;2.13;;
75139;SDS011;63714;55.812;37.658;2022-12-07T05:15:44;5.53;;;2.90;;
75139;SDS011;63714;55.812;37.658;2022-12-07T05:18:11;6.10;;;2.60;;
75139;SDS011;63714;55.812;37.658;2022-12-07T05:20:38;5.43;;;2.72;;
75139;SDS011;63714;55.812;37.658;2022-12-07T05:23:04;6.57;;;3.10;;
75139;SDS011;63714;55.812;37.658;2022-12-07T05:25:29;9.13;;;2.50;;
75139;SDS011;63714;55.812;37.658;2022-12-07T05:27:55;7.63;;;2.50;;
75139;SDS011;63714;55.812;37.658;2022-12-07T05:30:21;4.10;;;2.42;;
75139;SDS011;63714;55.812;37.658;2022-12-07T05:35:16;6.00;;;2.60;;
75139;SDS011;63714;55.812;37.658;2022-12-07T05:37:42;6.68;;;3.25;;
75139;SDS011;63714;55.812;37.658;2022-12-07T05:40:08;5.72;;;2.95;;
75139;SDS011;63714;55.812;37.658;2022-12-07T05:42:35;8.32;;;3.08;;
75139;SDS011;63714;55.812;37.658;2022-12-07T05:45:00;7.57;;;2.90;;
75139;SDS011;63714;55.812;37.658;2022-12-07T05:47:26;6.35;;;2.63;;
75139;SDS011;63714;55.812;37.658;2022-12-07T05:49:51;15.18;;;2.95;;
75139;SDS011;63714;55.812;37.658;2022-12-07T05:52:17;8.60;;;2.63;;
75139;SDS011;63714;55.812;37.658;2022-12-07T05:54:42;6.32;;;3.08;;
75139;SDS011;63714;55.812;37.658;2022-12-07T05:57:08;8.13;;;3.15;;
75139;SDS011;63714;55.812;37.658;2022-12-07T05:59:33;7.68;;;2.58;;
75139;SDS011;63714;55.812;37.658;2022-12-07T06:04:30;7.25;;;3.13;;
75139;SDS011;63714;55.812;37.658;2022-12-07T06:06:57;12.73;;;2.83;;
75139;SDS011;63714;55.812;37.658;2022-12-07T06:09:24;8.68;;;3.63;;
75139;SDS011;63714;55.812;37.658;2022-12-07T06:11:51;6.65;;;3.13;;
75139;SDS011;63714;55.812;37.658;2022-12-07T06:14:37;8.75;;;3.13;;
75139;SDS011;63714;55.812;37.658;2022-12-07T06:17:02;6.10;;;2.17;;
75139;SDS011;63714;55.812;37.658;2022-12-07T06:19:28;7.18;;;3.17;;
75139;SDS011;63714;55.812;37.658;2022-12-07T06:21:54;8.10;;;3.63;;
75139;SDS011;63714;55.812;37.658;2022-12-07T06:24:20;5.63;;;2.72;;
75139;SDS011;63714;55.812;37.658;2022-12-07T06:26:46;6.43;;;2.60;;
75139;SDS011;63714;55.812;37.658;2022-12-07T06:29:12;5.45;;;3.03;;
75139;SDS011;63714;55.812;37.658;2022-12-07T06:31:38;8.68;;;3.95;;
75139;SDS011;63714;55.812;37.658;2022-12-07T06:34:09;9.60;;;3.63;;
75139;SDS011;63714;55.812;37.658;2022-12-07T06:36:36;7.55;;;3.38;;
75139;SDS011;63714;55.812;37.658;2022-12-07T06:39:02;7.97;;;2.95;;
75139;SDS011;63714;55.812;37.658;2022-12-07T06:41:29;8.40;;;3.13;;
75139;SDS011;63714;55.812;37.658;2022-12-07T06:43:55;7.40;;;3.10;;
75139;SDS011;63714;55.812;37.658;2022-12-07T06:46:20;8.30;;;3.75;;
75139;SDS011;63714;55.812;37.658;2022-12-07T06:48:46;8.95;;;3.70;;
75139;SDS011;63714;55.812;37.658;2022-12-07T06:51:12;6.07;;;3.38;;
75139;SDS011;63714;55.812;37.658;2022-12-07T06:53:37;4.63;;;1.58;;
75139;SDS011;63714;55.812;37.658;2022-12-07T06:56:03;9.30;;;3.50;;
75139;SDS011;63714;55.812;37.658;2022-12-07T06:58:30;10.20;;;4.60;;
75139;SDS011;63714;55.812;37.658;2022-12-07T07:00:56;7.47;;;3.03;;
75139;SDS011;63714;55.812;37.658;2022-12-07T07:03:21;8.23;;;3.47;;
75139;SDS011;63714;55.812;37.658;2022-12-07T07:05:48;6.68;;;3.78;;
75139;SDS011;63714;55.812;37.658;2022-12-07T07:08:14;9.88;;;3.75;;
75139;SDS011;63714;55.812;37.658;2022-12-07T07:10:40;7.18;;;3.38;;
75139;SDS011;63714;55.812;37.658;2022-12-07T07:13:06;7.68;;;3.10;;
75139;SDS011;63714;55.812;37.658;2022-12-07T07:15:32;8.27;;;2.75;;
75139;SDS011;63714;55.812;37.658;2022-12-07T07:17:58;5.93;;;2.83;;
75139;SDS011;63714;55.812;37.658;2022-12-07T07:20:25;9.95;;;3.67;;
75139;SDS011;63714;55.812;37.658;2022-12-07T07:22:53;8.32;;;4.13;;
75139;SDS011;63714;55.812;37.658;2022-12-07T07:25:38;9.77;;;3.90;;
75139;SDS011;63714;55.812;37.658;2022-12-07T07:28:04;10.15;;;4.03;;
75139;SDS011;63714;55.812;37.658;2022-12-07T07:30:30;10.80;;;3.97;;
75139;SDS011;63714;55.812;37.658;2022-12-07T07:33:03;7.70;;;3.03;;
75139;SDS011;63714;55.812;37.658;2022-12-07T07:35:30;11.30;;;4.40;;
75139;SDS011;63714;55.812;37.658;2022-12-07T07:37:57;10.00;;;3.58;;
75139;SDS011;63714;55.812;37.658;2022-12-07T07:40:22;8.75;;;4.03;;
75139;SDS011;63714;55.812;37.658;2022-12-07T07:42:49;6.05;;;2.95;;
75139;SDS011;63714;55.812;37.658;2022-12-07T07:45:16;11.20;;;4.30;;
75139;SDS011;63714;55.812;37.658;2022-12-07T07:47:42;15.30;;;3.85;;
75139;SDS011;63714;55.812;37.658;2022-12-07T07:50:08;7.07;;;3.92;;
75139;SDS011;63714;55.812;37.658;2022-12-07T07:52:34;8.18;;;3.85;;
75139;SDS011;63714;55.812;37.658;2022-12-07T07:54:59;7.43;;;3.58;;
75139;SDS011;63714;55.812;37.658;2022-12-07T07:57:25;11.63;;;4.22;;
75139;SDS011;63714;55.812;37.658;2022-12-07T07:59:50;6.70;;;3.42;;
75139;SDS011;63714;55.812;37.658;2022-12-07T08:02:17;11.80;;;4.72;;
75139;SDS011;63714;55.812;37.658;2022-12-07T08:04:44;9.25;;;4.28;;
75139;SDS011;63714;55.812;37.658;2022-12-07T08:07:10;6.63;;;2.90;;
75139;SDS011;63714;55.812;37.658;2022-12-07T08:09:37;6.10;;;3.20;;
75139;SDS011;63714;55.812;37.658;2022-12-07T08:12:03;7.18;;;3.83;;
75139;SDS011;63714;55.812;37.658;2022-12-07T08:14:29;9.35;;;3.90;;
75139;SDS011;63714;55.812;37.658;2022-12-07T08:16:54;6.55;;;3.45;;
75139;SDS011;63714;55.812;37.658;2022-12-07T08:19:20;7.60;;;3.28;;
75139;SDS011;63714;55.812;37.658;2022-12-07T08:21:45;7.10;;;3.45;;
75139;SDS011;63714;55.812;37.658;2022-12-07T08:24:11;8.02;;;4.15;;
75139;SDS011;63714;55.812;37.658;2022-12-07T08:26:37;8.40;;;3.58;;
75139;SDS011;63714;55.812;37.658;2022-12-07T08:29:03;7.70;;;4.53;;
75139;SDS011;63714;55.812;37.658;2022-12-07T08:31:28;9.80;;;4.10;;
75139;SDS011;63714;55.812;37.658;2022-12-07T08:33:54;11.73;;;3.55;;
75139;SDS011;63714;55.812;37.658;2022-12-07T08:36:20;9.20;;;3.35;;
75139;SDS011;63714;55.812;37.658;2022-12-07T08:38:47;9.40;;;4.18;;
75139;SDS011;63714;55.812;37.658;2022-12-07T08:41:14;8.85;;;4.22;;
75139;SDS011;63714;55.812;37.658;2022-12-07T08:43:40;8.20;;;3.78;;
75139;SDS011;63714;55.812;37.658;2022-12-07T08:48:38;9.75;;;5.20;;
75139;SDS011;63714;55.812;37.658;2022-12-07T08:51:07;7.60;;;3.17;;
75139;SDS011;63714;55.812;37.658;2022-12-07T08:53:32;8.55;;;3.80;;
75139;SDS011;63714;55.812;37.658;2022-12-07T08:56:00;7.25;;;3.08;;
75139;SDS011;63714;55.812;37.658;2022-12-07T08:58:26;7.50;;;4.15;;
75139;SDS011;63714;55.812;37.658;2022-12-07T09:00:51;10.00;;;4.32;;
75139;SDS011;63714;55.812;37.658;2022-12-07T09:03:17;8.95;;;4.03;;
75139;SDS011;63714;55.812;37.658;2022-12-07T09:05:43;7.80;;;4.28;;
75139;SDS011;63714;55.812;37.658;2022-12-07T09:08:09;9.15;;;4.18;;
75139;SDS011;63714;55.812;37.658;2022-12-07T09:10:36;7.20;;;3.60;;
75139;SDS011;63714;55.812;37.658;2022-12-07T09:13:02;7.90;;;3.92;;
75139;SDS011;63714;55.812;37.658;2022-12-07T09:15:28;7.50;;;4.07;;
75139;SDS011;63714;55.812;37.658;2022-12-07T09:17:54;6.55;;;3.63;;
75139;SDS011;63714;55.812;37.658;2022-12-07T09:20:20;6.45;;;2.80;;
75139;SDS011;63714;55.812;37.658;2022-12-07T09:22:46;5.15;;;2.40;;
75139;SDS011;63714;55.812;37.658;2022-12-07T09:25:11;11.18;;;3.95;;
75139;SDS011;63714;55.812;37.658;2022-12-07T09:27:38;8.27;;;3.70;;
75139;SDS011;63714;55.812;37.658;2022-12-07T09:30:04;9.30;;;4.32;;
75139;SDS011;63714;55.812;37.658;2022-12-07T09:32:31;7.30;;;3.08;;
75139;SDS011;63714;55.812;37.658;2022-12-07T09:34:56;8.48;;;3.33;;
75139;SDS011;63714;55.812;37.658;2022-12-07T09:37:22;7.88;;;3.55;;
75139;SDS011;63714;55.812;37.658;2022-12-07T09:39:47;7.93;;;3.45;;
75139;SDS011;63714;55.812;37.658;2022-12-07T09:42:19;5.10;;;2.25;;
75139;SDS011;63714;55.812;37.658;2022-12-07T09:44:55;3.53;;;1.90;;
75139;SDS011;63714;55.812;37.658;2022-12-07T09:47:20;8.30;;;3.47;;
75139;SDS011;63714;55.812;37.658;2022-12-07T09:49:46;12.50;;;3.90;;
75139;SDS011;63714;55.812;37.658;2022-12-07T09:54:40;5.35;;;2.97;;
75139;SDS011;63714;55.812;37.658;2022-12-07T09:57:10;5.68;;;3.10;;
75139;SDS011;63714;55.812;37.658;2022-12-07T09:59:37;9.75;;;3.95;;
75139;SDS011;63714;55.812;37.658;2022-12-07T10:05:09;6.43;;;3.05;;
75139;SDS011;63714;55.812;37.658;2022-12-07T10:07:38;6.20;;;3.05;;
75139;SDS011;63714;55.812;37.658;2022-12-07T10:10:06;6.07;;;2.40;;
75139;SDS011;63714;55.812;37.658;2022-12-07T10:18:28;8.68;;;2.97;;
75139;SDS011;63714;55.812;37.658;2022-12-07T10:21:19;7.50;;;1.95;;
75139;SDS011;63714;55.812;37.658;2022-12-07T10:28:54;5.68;;;2.13;;
75139;SDS011;63714;55.812;37.658;2022-12-07T10:31:21;6.28;;;2.70;;
75139;SDS011;63714;55.812;37.658;2022-12-07T10:33:49;5.90;;;3.30;;
75139;SDS011;63714;55.812;37.658;2022-12-07T10:39:01;4.63;;;2.08;;
75139;SDS011;63714;55.812;37.658;2022-12-07T10:41:56;8.00;;;3.00;;
75139;SDS011;63714;55.812;37.658;2022-12-07T10:44:24;7.32;;;3.35;;
75139;SDS011;63714;55.812;37.658;2022-12-07T11:00:54;7.32;;;3.42;;
75139;SDS011;63714;55.812;37.658;2022-12-07T11:11:27;6.40;;;2.75;;
75139;SDS011;63714;55.812;37.658;2022-12-07T11:14:19;7.68;;;3.38;;
75139;SDS011;63714;55.812;37.658;2022-12-07T11:17:45;11.23;;;2.65;;
75139;SDS011;63714;55.812;37.658;2022-12-07T11:20:57;8.95;;;3.83;;
75139;SDS011;63714;55.812;37.658;2022-12-07T11:34:26;5.60;;;2.83;;
75139;SDS011;63714;55.812;37.658;2022-12-07T11:36:56;7.15;;;2.95;;
75139;SDS011;63714;55.812;37.658;2022-12-07T11:41:48;9.48;;;3.40;;
75139;SDS011;63714;55.812;37.658;2022-12-07T11:46:46;9.43;;;3.55;;
75139;SDS011;63714;55.812;37.658;2022-12-07T11:51:44;11.85;;;3.95;;
75139;SDS011;63714;55.812;37.658;2022-12-07T11:54:15;8.18;;;3.42;;
75139;SDS011;63714;55.812;37.658;2022-12-07T11:56:46;7.50;;;3.38;;
75139;SDS011;63714;55.812;37.658;2022-12-07T11:59:17;12.70;;;3.92;;
75139;SDS011;63714;55.812;37.658;2022-12-07T12:04:26;7.85;;;3.38;;
75139;SDS011;63714;55.812;37.658;2022-12-07T12:06:57;10.05;;;3.03;;
75139;SDS011;63714;55.812;37.658;2022-12-07T12:09:26;8.80;;;3.25;;
75139;SDS011;63714;55.812;37.658;2022-12-07T12:12:02;6.68;;;2.60;;
75139;SDS011;63714;55.812;37.658;2022-12-07T12:17:52;12.82;;;4.88;;
75139;SDS011;63714;55.812;37.658;2022-12-07T12:23:35;10.90;;;3.42;;
75139;SDS011;63714;55.812;37.658;2022-12-07T12:26:14;9.60;;;4.07;;
75139;SDS011;63714;55.812;37.658;2022-12-07T12:33:46;10.20;;;3.70;;
75139;SDS011;63714;55.812;37.658;2022-12-07T12:38:51;6.35;;;3.30;;
75139;SDS011;63714;55.812;37.658;2022-12-07T12:44:01;7.10;;;3.35;;
75139;SDS011;63714;55.812;37.658;2022-12-07T12:51:41;8.13;;;3.55;;
75139;SDS011;63714;55.812;37.658;2022-12-07T12:54:19;8.07;;;3.47;;
75139;SDS011;63714;55.812;37.658;2022-12-07T12:59:55;10.43;;;3.20;;
75139;SDS011;63714;55.812;37.658;2022-12-07T13:26:15;10.00;;;3.50;;
75139;SDS011;63714;55.812;37.658;2022-12-07T13:28:45;8.63;;;3.90;;
75139;SDS011;63714;55.812;37.658;2022-12-07T13:31:15;4.75;;;3.20;;
75139;SDS011;63714;55.812;37.658;2022-12-07T13:33:50;7.97;;;2.55;;
75139;SDS011;63714;55.812;37.658;2022-12-07T13:36:19;7.18;;;4.15;;
75139;SDS011;63714;55.812;37.658;2022-12-07T13:38:58;9.43;;;3.75;;
75139;SDS011;63714;55.812;37.658;2022-12-07T13:41:26;13.80;;;4.53;;
75139;SDS011;63714;55.812;37.658;2022-12-07T13:44:15;5.47;;;2.38;;
75139;SDS011;63714;55.812;37.658;2022-12-07T13:49:50;11.15;;;4.15;;
75139;SDS011;63714;55.812;37.658;2022-12-07T13:52:19;9.18;;;3.92;;
75139;SDS011;63714;55.812;37.658;2022-12-07T13:54:57;10.38;;;4.55;;
75139;SDS011;63714;55.812;37.658;2022-12-07T13:57:30;6.93;;;2.97;;
75139;SDS011;63714;55.812;37.658;2022-12-07T13:59:57;7.10;;;3.08;;
75139;SDS011;63714;55.812;37.658;2022-12-07T14:02:30;4.80;;;2.63;;
75139;SDS011;63714;55.812;37.658;2022-12-07T14:08:39;11.23;;;3.35;;
75139;SDS011;63714;55.812;37.658;2022-12-07T14:10:40;11.40;;;4.32;;
75139;SDS011;63714;55.812;37.658;2022-12-07T14:13:31;8.18;;;3.30;;
75139;SDS011;63714;55.812;37.658;2022-12-07T14:16:28;10.35;;;3.85;;
75139;SDS011;63714;55.812;37.658;2022-12-07T14:18:57;7.88;;;3.78;;
75139;SDS011;63714;55.812;37.658;2022-12-07T14:21:25;9.13;;;4.00;;
75139;SDS011;63714;55.812;37.658;2022-12-07T14:24:04;8.00;;;3.88;;
75139;SDS011;63714;55.812;37.658;2022-12-07T14:26:43;11.23;;;4.50;;
75139;SDS011;63714;55.812;37.658;2022-12-07T14:29:45;8.57;;;4.30;;
75139;SDS011;63714;55.812;37.658;2022-12-07T14:32:13;8.98;;;4.07;;
75139;SDS011;63714;55.812;37.658;2022-12-07T14:34:52;6.32;;;2.65;;
75139;SDS011;63714;55.812;37.658;2022-12-07T14:37:21;8.63;;;4.40;;
75139;SDS011;63714;55.812;37.658;2022-12-07T14:39:47;11.57;;;4.57;;
75139;SDS011;63714;55.812;37.658;2022-12-07T14:42:13;7.07;;;2.97;;
75139;SDS011;63714;55.812;37.658;2022-12-07T14:44:38;8.73;;;3.97;;
75139;SDS011;63714;55.812;37.658;2022-12-07T14:47:04;10.48;;;3.53;;
75139;SDS011;63714;55.812;37.658;2022-12-07T14:49:29;12.52;;;3.72;;
75139;SDS011;63714;55.812;37.658;2022-12-07T14:51:55;10.45;;;4.45;;
75139;SDS011;63714;55.812;37.658;2022-12-07T14:54:21;13.57;;;4.18;;
75139;SDS011;63714;55.812;37.658;2022-12-07T14:56:52;9.40;;;4.20;;
75139;SDS011;63714;55.812;37.658;2022-12-07T14:59:18;7.97;;;4.07;;
75139;SDS011;63714;55.812;37.658;2022-12-07T15:01:44;6.30;;;3.05;;
75139;SDS011;63714;55.812;37.658;2022-12-07T15:04:09;9.55;;;5.00;;
75139;SDS011;63714;55.812;37.658;2022-12-07T15:06:35;9.68;;;5.55;;
75139;SDS011;63714;55.812;37.658;2022-12-07T15:09:01;11.10;;;4.13;;
75139;SDS011;63714;55.812;37.658;2022-12-07T15:11:27;11.40;;;4.28;;
75139;SDS011;63714;55.812;37.658;2022-12-07T15:13:53;8.73;;;3.67;;
75139;SDS011;63714;55.812;37.658;2022-12-07T15:16:34;13.98;;;4.10;;
75139;SDS011;63714;55.812;37.658;2022-12-07T15:19:01;9.93;;;3.60;;
75139;SDS011;63714;55.812;37.658;2022-12-07T15:21:26;9.40;;;4.15;;
75139;SDS011;63714;55.812;37.658;2022-12-07T15:23:52;9.68;;;4.55;;
75139;SDS011;63714;55.812;37.658;2022-12-07T15:26:18;7.68;;;3.78;;
75139;SDS011;63714;55.812;37.658;2022-12-07T15:28:44;8.43;;;4.20;;
75139;SDS011;63714;55.812;37.658;2022-12-07T15:31:16;9.05;;;3.90;;
75139;SDS011;63714;55.812;37.658;2022-12-07T15:33:42;8.43;;;3.13;;
75139;SDS011;63714;55.812;37.658;2022-12-07T15:36:09;9.32;;;4.70;;
75139;SDS011;63714;55.812;37.658;2022-12-07T15:38:43;8.90;;;3.88;;
75139;SDS011;63714;55.812;37.658;2022-12-07T15:41:09;9.18;;;2.88;;
75139;SDS011;63714;55.812;37.658;2022-12-07T15:43:35;11.52;;;4.18;;
75139;SDS011;63714;55.812;37.658;2022-12-07T15:46:19;13.60;;;5.03;;
75139;SDS011;63714;55.812;37.658;2022-12-07T15:48:45;10.93;;;4.07;;
75139;SDS011;63714;55.812;37.658;2022-12-07T15:51:12;6.15;;;3.38;;
75139;SDS011;63714;55.812;37.658;2022-12-07T15:53:37;9.90;;;4.45;;
75139;SDS011;63714;55.812;37.658;2022-12-07T15:56:07;9.93;;;3.85;;
75139;SDS011;63714;55.812;37.658;2022-12-07T15:58:33;7.45;;;3.83;;
75139;SDS011;63714;55.812;37.658;2022-12-07T16:00:59;11.77;;;4.35;;
75139;SDS011;63714;55.812;37.658;2022-12-07T16:03:26;7.13;;;3.90;;
75139;SDS011;63714;55.812;37.658;2022-12-07T16:05:52;9.93;;;4.18;;
75139;SDS011;63714;55.812;37.658;2022-12-07T16:08:18;6.95;;;2.83;;
75139;SDS011;63714;55.812;37.658;2022-12-07T16:10:44;8.32;;;3.08;;
75139;SDS011;63714;55.812;37.658;2022-12-07T16:13:10;10.05;;;4.47;;
75139;SDS011;63714;55.812;37.658;2022-12-07T16:15:39;10.98;;;4.05;;
75139;SDS011;63714;55.812;37.658;2022-12-07T16:18:06;8.00;;;3.25;;
75139;SDS011;63714;55.812;37.658;2022-12-07T16:20:32;10.25;;;4.60;;
75139;SDS011;63714;55.812;37.658;2022-12-07T16:22:57;10.05;;;5.00;;
75139;SDS011;63714;55.812;37.658;2022-12-07T16:25:23;10.65;;;4.75;;
75139;SDS011;63714;55.812;37.658;2022-12-07T16:27:49;10.68;;;4.50;;
75139;SDS011;63714;55.812;37.658;2022-12-07T16:30:16;7.47;;;3.05;;
75139;SDS011;63714;55.812;37.658;2022-12-07T16:32:42;10.80;;;4.68;;
75139;SDS011;63714;55.812;37.658;2022-12-07T16:35:08;10.00;;;3.70;;
75139;SDS011;63714;55.812;37.658;2022-12-07T16:37:34;8.93;;;3.67;;
75139;SDS011;63714;55.812;37.658;2022-12-07T16:39:59;9.27;;;3.42;;
75139;SDS011;63714;55.812;37.658;2022-12-07T16:42:25;11.27;;;4.10;;
75139;SDS011;63714;55.812;37.658;2022-12-07T16:44:51;13.93;;;5.00;;
75139;SDS011;63714;55.812;37.658;2022-12-07T16:47:17;11.32;;;4.32;;
75139;SDS011;63714;55.812;37.658;2022-12-07T16:49:43;5.43;;;2.67;;
75139;SDS011;63714;55.812;37.658;2022-12-07T16:52:09;7.88;;;3.22;;
75139;SDS011;63714;55.812;37.658;2022-12-07T16:54:35;6.47;;;3.20;;
75139;SDS011;63714;55.812;37.658;2022-12-07T16:57:01;9.60;;;3.30;;
75139;SDS011;63714;55.812;37.658;2022-12-07T16:59:26;5.72;;;2.70;;
75139;SDS011;63714;55.812;37.658;2022-12-07T17:01:52;13.60;;;5.03;;
75139;SDS011;63714;55.812;37.658;2022-12-07T17:04:17;6.68;;;3.25;;
75139;SDS011;63714;55.812;37.658;2022-12-07T17:06:43;5.78;;;2.83;;
75139;SDS011;63714;55.812;37.658;2022-12-07T17:09:08;9.45;;;3.05;;
75139;SDS011;63714;55.812;37.658;2022-12-07T17:11:35;7.63;;;3.95;;
75139;SDS011;63714;55.812;37.658;2022-12-07T17:14:01;8.75;;;4.13;;
75139;SDS011;63714;55.812;37.658;2022-12-07T17:16:45;5.60;;;3.40;;
75139;SDS011;63714;55.812;37.658;2022-12-07T17:19:12;8.57;;;4.20;;